createdAt,value
2023-09-23T00:01:52.895Z,10.93
2023-09-23T00:04:56.013Z,15.80
2023-09-23T00:08:00.203Z,13.23
2023-09-23T00:11:03.590Z,12.90
2023-09-23T00:14:07.162Z,11.88
2023-09-23T00:17:10.277Z,13.80
2023-09-23T00:20:16.585Z,12.37
2023-09-23T00:23:21.325Z,12.10
2023-09-23T00:26:24.452Z,11.27
2023-09-23T00:29:29.423Z,9.20
2023-09-23T00:32:35.346Z,14.17
2023-09-23T00:35:38.375Z,13.30
2023-09-23T00:38:41.693Z,15.15
2023-09-23T00:41:45.183Z,13.60
2023-09-23T00:44:48.776Z,13.70
2023-09-23T00:47:54.453Z,13.13
2023-09-23T00:50:58.066Z,11.17
2023-09-23T00:54:01.228Z,14.77
2023-09-23T00:57:07.613Z,12.43
2023-09-23T01:00:25.992Z,13.88
2023-09-23T01:03:32.237Z,13.80
2023-09-23T01:06:35.445Z,11.57
2023-09-23T01:09:38.634Z,14.85
2023-09-23T01:12:41.691Z,11.43
2023-09-23T01:15:47.854Z,10.75
2023-09-23T01:18:51.293Z,11.10
2023-09-23T01:21:57.053Z,13.73
2023-09-23T01:25:00.113Z,12.43
2023-09-23T01:28:09.471Z,13.52
2023-09-23T01:31:12.643Z,11.80
2023-09-23T01:34:15.839Z,12.00
2023-09-23T01:37:19.988Z,12.77
2023-09-23T01:40:26.163Z,14.30
2023-09-23T01:43:29.226Z,11.25
2023-09-23T01:46:32.232Z,11.82
2023-09-23T01:49:35.250Z,13.07
2023-09-23T01:52:38.876Z,15.07
2023-09-23T01:55:41.938Z,11.88
2023-09-23T01:58:45.954Z,13.02
2023-09-23T02:01:50.168Z,18.38
2023-09-23T02:04:53.205Z,14.47
2023-09-23T02:07:56.525Z,17.53
2023-09-23T02:10:59.641Z,13.18
2023-09-23T02:14:02.706Z,11.32
2023-09-23T02:17:05.824Z,11.40
2023-09-23T02:20:13.299Z,10.67
2023-09-23T02:23:16.422Z,13.00
2023-09-23T02:26:22.096Z,9.93
2023-09-23T02:29:25.159Z,12.25
2023-09-23T02:32:28.177Z,15.07
2023-09-23T02:35:31.716Z,10.77
2023-09-23T02:38:34.753Z,12.57
2023-09-23T02:41:37.813Z,14.63
2023-09-23T02:44:42.261Z,12.57
2023-09-23T02:47:47.470Z,14.63
2023-09-23T02:50:50.776Z,15.70
2023-09-23T02:53:53.853Z,12.57
2023-09-23T02:56:57.150Z,10.23
2023-09-23T03:00:00.342Z,13.52
2023-09-23T03:03:13.502Z,13.15
2023-09-23T03:06:17.436Z,11.83
2023-09-23T03:09:27.235Z,13.73
2023-09-23T03:12:42.072Z,12.90
2023-09-23T03:15:51.515Z,15.27
2023-09-23T03:19:12.222Z,17.67
2023-09-23T03:22:15.548Z,15.40
2023-09-23T03:25:21.723Z,15.83
2023-09-23T03:28:24.840Z,12.48
2023-09-23T03:31:28.352Z,13.82
2023-09-23T03:34:33.587Z,15.13
2023-09-23T03:37:37.336Z,17.83
2023-09-23T03:40:40.436Z,12.93
2023-09-23T03:43:45.014Z,13.80
2023-09-23T03:46:49.256Z,18.15
2023-09-23T03:49:53.577Z,16.00
2023-09-23T03:52:56.868Z,15.13
2023-09-23T03:56:02.033Z,18.90
2023-09-23T03:59:07.334Z,13.13
2023-09-23T04:02:10.578Z,14.95
2023-09-23T04:05:15.739Z,16.25
2023-09-23T04:08:18.833Z,12.27
2023-09-23T04:11:21.935Z,18.07
2023-09-23T04:14:28.136Z,16.13
2023-09-23T04:17:31.655Z,16.23
2023-09-23T04:20:34.736Z,16.60
2023-09-23T04:23:37.770Z,18.03
2023-09-23T04:26:40.737Z,17.50
2023-09-23T04:29:44.455Z,16.67
2023-09-23T04:32:47.998Z,17.60
2023-09-23T04:35:52.636Z,18.73
2023-09-23T04:38:55.717Z,17.83
2023-09-23T04:41:58.742Z,20.83
2023-09-23T04:45:01.699Z,12.38
2023-09-23T04:48:07.321Z,16.95
2023-09-23T04:51:10.407Z,14.95
2023-09-23T04:54:13.468Z,14.70
2023-09-23T04:57:16.421Z,15.90
2023-09-23T05:00:20.845Z,16.65
2023-09-23T05:03:24.947Z,18.35
2023-09-23T05:06:27.937Z,16.23
2023-09-23T05:09:31.772Z,15.17
2023-09-23T05:12:35.308Z,13.70
2023-09-23T05:15:38.805Z,16.83
2023-09-23T05:18:42.244Z,13.35
2023-09-23T05:21:46.277Z,14.70
2023-09-23T05:24:51.628Z,15.27
2023-09-23T05:27:56.477Z,19.40
2023-09-23T05:31:00.132Z,14.30
2023-09-23T05:34:04.557Z,12.35
2023-09-23T05:37:07.755Z,13.90
2023-09-23T05:40:31.481Z,13.60
2023-09-23T05:43:34.536Z,15.80
2023-09-23T05:46:39.258Z,15.00
2023-09-23T05:49:45.227Z,19.35
2023-09-23T05:52:50.079Z,19.73
2023-09-23T05:55:53.145Z,22.03
2023-09-23T05:58:56.232Z,19.03
2023-09-23T06:01:59.463Z,15.05
2023-09-23T06:05:03.342Z,17.63
2023-09-23T06:08:06.941Z,17.33
2023-09-23T06:11:12.402Z,17.87
2023-09-23T06:14:15.566Z,20.87
2023-09-23T06:17:18.636Z,20.15
2023-09-23T06:20:21.740Z,15.65
2023-09-23T06:23:25.502Z,22.40
2023-09-23T06:26:28.558Z,15.77
2023-09-23T06:29:31.702Z,16.00
2023-09-23T06:32:34.889Z,18.60
2023-09-23T06:35:37.992Z,16.95
2023-09-23T06:38:41.011Z,17.63
2023-09-23T06:41:44.023Z,21.67
2023-09-23T06:44:47.045Z,21.67
2023-09-23T06:47:50.114Z,22.45
2023-09-23T06:51:03.100Z,19.35
2023-09-23T06:54:06.514Z,19.33
2023-09-23T06:57:10.209Z,22.10
2023-09-23T07:00:13.652Z,21.80
2023-09-23T07:03:16.898Z,25.25
2023-09-23T07:06:19.962Z,22.25
2023-09-23T07:09:22.932Z,20.13
2023-09-23T07:12:25.930Z,24.73
2023-09-23T07:15:29.636Z,18.03
2023-09-23T07:18:34.751Z,22.85
2023-09-23T07:21:39.960Z,28.38
2023-09-23T07:24:43.847Z,25.13
2023-09-23T07:27:47.017Z,25.40
2023-09-23T07:30:50.131Z,22.70
2023-09-23T07:33:53.311Z,20.95
2023-09-23T07:36:56.537Z,22.60
2023-09-23T07:39:59.546Z,18.23
2023-09-23T07:43:02.638Z,24.80
2023-09-23T07:46:05.815Z,24.50
2023-09-23T07:49:08.857Z,26.98
2023-09-23T07:52:11.893Z,23.55
2023-09-23T07:55:15.094Z,23.48
2023-09-23T07:58:18.219Z,23.90
2023-09-23T08:01:21.275Z,17.83
2023-09-23T08:04:24.300Z,24.77
2023-09-23T08:07:27.286Z,21.90
2023-09-23T08:10:30.336Z,20.73
2023-09-23T08:13:33.354Z,18.27
2023-09-23T08:16:36.419Z,18.97
2023-09-23T08:19:39.587Z,17.95
2023-09-23T08:22:42.808Z,23.25
2023-09-23T08:25:45.813Z,25.67
2023-09-23T08:28:49.310Z,29.30
2023-09-23T08:31:52.905Z,34.83
2023-09-23T08:34:55.975Z,25.08
2023-09-23T08:37:59.036Z,22.15
2023-09-23T08:41:04.191Z,19.60
2023-09-23T08:44:07.544Z,20.07
2023-09-23T08:47:10.953Z,20.17
2023-09-23T08:50:14.014Z,16.63
2023-09-23T08:53:17.029Z,19.30
2023-09-23T08:56:21.311Z,19.77
2023-09-23T08:59:24.679Z,15.60
2023-09-23T09:02:27.986Z,13.30
2023-09-23T09:05:40.660Z,13.32
2023-09-23T09:08:44.147Z,15.55
2023-09-23T09:11:48.457Z,11.63
2023-09-23T09:14:54.451Z,13.73
2023-09-23T09:17:59.696Z,13.83
2023-09-23T09:21:02.870Z,10.90
2023-09-23T09:24:06.189Z,14.13
2023-09-23T09:27:15.476Z,12.10
2023-09-23T09:30:20.344Z,13.30
2023-09-23T09:33:25.654Z,16.03
2023-09-23T09:36:28.810Z,14.20
2023-09-23T09:39:32.486Z,14.65
2023-09-23T09:42:35.503Z,15.02
2023-09-23T09:45:41.904Z,17.80
2023-09-23T09:48:45.214Z,20.07
2023-09-23T09:51:50.147Z,17.63
2023-09-23T09:54:56.965Z,14.18
2023-09-23T09:58:02.643Z,14.20
2023-09-23T10:01:06.076Z,16.30
2023-09-23T10:04:13.172Z,15.67
2023-09-23T10:07:17.957Z,14.55
2023-09-23T10:10:38.956Z,14.52
2023-09-23T10:13:43.628Z,13.02
2023-09-23T10:16:53.464Z,16.10
2023-09-23T10:19:57.377Z,13.20
2023-09-23T10:23:01.075Z,12.05
2023-09-23T10:26:22.125Z,13.40
2023-09-23T10:29:25.186Z,14.20
2023-09-23T10:32:28.242Z,11.80
2023-09-23T10:35:31.490Z,12.17
2023-09-23T10:38:39.438Z,12.77
2023-09-23T10:41:42.461Z,11.35
2023-09-23T10:44:49.138Z,11.23
2023-09-23T10:47:52.252Z,10.77
2023-09-23T10:50:55.378Z,9.10
2023-09-23T10:53:58.701Z,8.80
2023-09-23T10:57:01.820Z,9.13
2023-09-23T11:00:14.226Z,7.80
2023-09-23T11:03:18.952Z,8.60
2023-09-23T11:06:22.154Z,8.73
2023-09-23T11:09:27.455Z,7.07
2023-09-23T11:12:34.610Z,7.38
2023-09-23T11:15:41.498Z,8.10
2023-09-23T11:18:45.747Z,7.30
2023-09-23T11:21:49.207Z,7.30
2023-09-23T11:24:52.639Z,6.53
2023-09-23T11:27:59.898Z,7.40
2023-09-23T11:31:03.161Z,8.00
2023-09-23T11:34:06.207Z,6.97
2023-09-23T11:37:09.739Z,7.57
2023-09-23T11:40:15.933Z,7.38
2023-09-23T11:43:18.923Z,6.55
2023-09-23T11:46:23.521Z,7.93
2023-09-23T11:49:26.929Z,7.93
2023-09-23T11:52:29.985Z,8.07
2023-09-23T11:55:34.301Z,6.95
2023-09-23T11:58:37.724Z,7.50
2023-09-23T12:01:40.739Z,7.22
2023-09-23T12:04:43.797Z,8.07
2023-09-23T12:07:47.193Z,7.43
2023-09-23T12:10:50.267Z,8.68
2023-09-23T12:13:54.170Z,6.43
2023-09-23T12:16:57.355Z,7.22
2023-09-23T12:20:00.432Z,7.97
2023-09-23T12:23:04.431Z,7.23
2023-09-23T12:26:07.600Z,7.75
2023-09-23T12:29:10.595Z,8.30
2023-09-23T12:32:13.908Z,7.28
2023-09-23T12:35:17.021Z,8.07
2023-09-23T12:38:20.158Z,8.60
2023-09-23T12:41:23.181Z,7.75
2023-09-23T12:44:26.310Z,7.97
2023-09-23T12:47:37.301Z,8.43
2023-09-23T12:50:47.832Z,10.40
2023-09-23T12:53:50.869Z,8.33
2023-09-23T12:56:53.929Z,7.90
2023-09-23T12:59:57.068Z,8.73
2023-09-23T13:03:00.229Z,8.85
2023-09-23T13:06:03.386Z,9.17
2023-09-23T13:09:06.565Z,7.80
2023-09-23T13:12:09.537Z,7.90
2023-09-23T13:15:13.825Z,8.05
2023-09-23T13:18:17.901Z,8.45
2023-09-23T13:21:21.547Z,9.20
2023-09-23T13:24:24.673Z,7.27
2023-09-23T13:27:27.906Z,7.20
2023-09-23T13:30:30.935Z,7.40
2023-09-23T13:33:34.069Z,6.22
2023-09-23T13:36:37.161Z,6.70
2023-09-23T13:39:40.171Z,6.60
2023-09-23T13:42:43.243Z,5.00
2023-09-23T13:45:46.912Z,5.07
2023-09-23T13:48:50.237Z,5.47
2023-09-23T13:51:53.477Z,4.47
2023-09-23T13:54:56.609Z,5.53
2023-09-23T13:57:59.713Z,5.20
2023-09-23T14:01:02.790Z,5.95
2023-09-23T14:04:07.894Z,5.30
2023-09-23T14:07:11.228Z,5.27
2023-09-23T14:10:21.458Z,5.57
2023-09-23T14:13:25.899Z,7.65
2023-09-23T14:16:28.919Z,6.18
2023-09-23T14:19:33.581Z,5.65
2023-09-23T14:22:36.588Z,5.80
2023-09-23T14:25:39.685Z,5.20
2023-09-23T14:28:44.118Z,6.97
2023-09-23T14:31:47.275Z,5.65
2023-09-23T14:34:50.281Z,5.63
2023-09-23T14:37:53.358Z,5.30
2023-09-23T14:40:56.797Z,5.67
2023-09-23T14:43:59.792Z,6.20
2023-09-23T14:47:02.863Z,5.22
2023-09-23T14:50:08.002Z,5.32
2023-09-23T14:53:11.094Z,7.20
2023-09-23T14:56:14.217Z,5.70
2023-09-23T14:59:18.582Z,6.25
2023-09-23T15:02:21.711Z,7.50
2023-09-23T15:05:25.138Z,5.72
2023-09-23T15:08:28.971Z,6.00
2023-09-23T15:11:32.061Z,6.10
2023-09-23T15:14:36.604Z,6.40
2023-09-23T15:17:40.396Z,5.40
2023-09-23T15:20:43.729Z,6.28
2023-09-23T15:23:46.835Z,6.47
2023-09-23T15:26:49.945Z,5.90
2023-09-23T15:29:53.546Z,7.38
2023-09-23T15:32:56.678Z,6.20
2023-09-23T15:35:59.923Z,6.00
2023-09-23T15:39:03.326Z,6.10
2023-09-23T15:42:06.705Z,5.33
2023-09-23T15:45:09.932Z,6.28
2023-09-23T15:48:12.979Z,5.45
2023-09-23T15:51:20.818Z,4.97
2023-09-23T15:54:23.894Z,6.77
2023-09-23T15:57:27.467Z,7.57
2023-09-23T16:00:30.857Z,5.57
2023-09-23T16:03:34.560Z,6.05
2023-09-23T16:06:38.209Z,8.35
2023-09-23T16:09:41.229Z,8.37
2023-09-23T16:12:44.239Z,6.43
2023-09-23T16:15:47.490Z,7.07
2023-09-23T16:18:50.607Z,5.20
2023-09-23T16:21:53.658Z,5.28
2023-09-23T16:24:56.662Z,5.37
2023-09-23T16:27:59.735Z,4.63
2023-09-23T16:31:02.724Z,6.25
2023-09-23T16:34:06.045Z,8.30
2023-09-23T16:37:09.119Z,5.85
2023-09-23T16:40:12.458Z,6.07
2023-09-23T16:43:15.507Z,4.93
2023-09-23T16:46:18.644Z,6.25
2023-09-23T16:49:21.810Z,7.30
2023-09-23T16:52:24.850Z,6.32
2023-09-23T16:55:28.866Z,7.43
2023-09-23T16:58:31.901Z,5.97
2023-09-23T17:01:34.950Z,5.75
2023-09-23T17:04:38.102Z,6.55
2023-09-23T17:07:41.217Z,5.80
2023-09-23T17:10:44.260Z,5.10
2023-09-23T17:13:48.672Z,5.93
2023-09-23T17:16:52.078Z,5.82
2023-09-23T17:19:56.358Z,9.10
2023-09-23T17:22:59.938Z,4.53
2023-09-23T17:26:06.432Z,5.50
2023-09-23T17:29:09.628Z,6.13
2023-09-23T17:32:12.685Z,5.50
2023-09-23T17:35:16.918Z,5.85
2023-09-23T17:38:19.986Z,4.65
2023-09-23T17:41:23.385Z,5.83
2023-09-23T17:44:26.695Z,5.60
2023-09-23T17:47:29.805Z,5.22
2023-09-23T17:50:34.624Z,5.10
2023-09-23T17:53:37.861Z,5.15
2023-09-23T17:56:40.970Z,7.47
2023-09-23T17:59:44.295Z,8.13
2023-09-23T18:02:47.449Z,6.05
2023-09-23T18:05:51.702Z,5.10
2023-09-23T18:08:54.857Z,5.90
2023-09-23T18:11:57.869Z,5.33
2023-09-23T18:15:00.845Z,5.63
2023-09-23T18:18:04.054Z,5.38
2023-09-23T18:21:07.261Z,5.53
2023-09-23T18:24:10.345Z,9.10
2023-09-23T18:27:13.719Z,8.97
2023-09-23T18:30:16.890Z,6.37
2023-09-23T18:33:20.194Z,5.72
2023-09-23T18:36:23.621Z,7.35
2023-09-23T18:39:26.652Z,5.80
2023-09-23T18:42:29.693Z,5.40
2023-09-23T18:45:32.851Z,5.20
2023-09-23T18:48:36.005Z,6.03
2023-09-23T18:51:39.036Z,5.15
2023-09-23T18:54:42.038Z,5.97
2023-09-23T18:57:45.070Z,5.73
2023-09-23T19:00:48.196Z,6.47
2023-09-23T19:03:51.541Z,6.25
2023-09-23T19:06:55.000Z,6.00
2023-09-23T19:09:58.092Z,6.20
2023-09-23T19:13:01.758Z,7.03
2023-09-23T19:16:05.960Z,5.90
2023-09-23T19:19:10.493Z,6.72
2023-09-23T19:22:13.509Z,5.65
2023-09-23T19:25:17.780Z,6.88
2023-09-23T19:28:23.999Z,6.83
2023-09-23T19:31:27.100Z,5.63
2023-09-23T19:34:30.807Z,6.15
2023-09-23T19:37:34.113Z,5.70
2023-09-23T19:40:40.694Z,7.13
2023-09-23T19:43:43.751Z,5.17
2023-09-23T19:46:47.139Z,6.33
2023-09-23T19:49:54.120Z,5.80
2023-09-23T19:52:57.405Z,6.00
2023-09-23T19:56:00.376Z,5.47
2023-09-23T19:59:03.358Z,7.10
2023-09-23T20:02:06.400Z,5.47
2023-09-23T20:05:09.712Z,6.30
2023-09-23T20:08:13.067Z,8.63
2023-09-23T20:11:18.616Z,5.90
2023-09-23T20:14:21.623Z,6.23
2023-09-23T20:17:25.452Z,5.93
2023-09-23T20:20:30.681Z,6.80
2023-09-23T20:23:33.855Z,6.05
2023-09-23T20:26:37.316Z,6.32
2023-09-23T20:29:59.696Z,6.90
2023-09-23T20:33:07.980Z,7.17
2023-09-23T20:36:11.337Z,7.22
2023-09-23T20:39:14.361Z,11.38
2023-09-23T20:42:17.377Z,6.50
2023-09-23T20:45:20.448Z,7.93
2023-09-23T20:48:23.769Z,7.27
2023-09-23T20:51:27.074Z,6.80
2023-09-23T20:54:30.304Z,7.40
2023-09-23T20:57:34.572Z,6.72
2023-09-23T21:00:37.773Z,6.60
2023-09-23T21:03:40.998Z,6.50
2023-09-23T21:06:44.141Z,7.10
2023-09-23T21:09:47.134Z,6.85
2023-09-23T21:12:50.751Z,6.43
2023-09-23T21:16:04.441Z,7.77
2023-09-23T21:19:07.537Z,7.33
2023-09-23T21:22:10.527Z,7.38
2023-09-23T21:25:13.855Z,8.60
2023-09-23T21:28:17.460Z,6.97
2023-09-23T21:31:20.481Z,7.63
2023-09-23T21:34:23.548Z,6.80
2023-09-23T21:37:26.520Z,9.10
2023-09-23T21:40:29.470Z,8.38
2023-09-23T21:43:32.534Z,7.05
2023-09-23T21:46:35.651Z,9.27
2023-09-23T21:49:39.109Z,7.40
2023-09-23T21:52:42.348Z,8.05
2023-09-23T21:55:45.332Z,8.75
2023-09-23T21:58:48.637Z,7.53
2023-09-23T22:01:51.689Z,7.10
2023-09-23T22:04:54.818Z,8.20
2023-09-23T22:07:59.793Z,8.52
2023-09-23T22:11:03.577Z,7.97
2023-09-23T22:14:10.286Z,7.60
2023-09-23T22:17:15.077Z,14.57
2023-09-23T22:20:19.021Z,6.50
2023-09-23T22:23:22.092Z,8.55
2023-09-23T22:26:25.445Z,6.90
2023-09-23T22:29:28.644Z,6.18
2023-09-23T22:32:31.803Z,7.80
2023-09-23T22:35:35.154Z,6.40
2023-09-23T22:38:38.249Z,6.43
2023-09-23T22:41:41.429Z,7.03
2023-09-23T22:44:44.514Z,7.15
2023-09-23T22:47:48.537Z,5.93
2023-09-23T22:50:51.776Z,7.70
2023-09-23T22:53:54.845Z,7.22
2023-09-23T22:56:58.948Z,9.68
2023-09-23T23:00:02.210Z,7.50
2023-09-23T23:03:07.841Z,7.00
2023-09-23T23:06:11.962Z,7.57
2023-09-23T23:09:15.604Z,12.00
2023-09-23T23:12:18.645Z,7.80
2023-09-23T23:15:21.751Z,9.27
2023-09-23T23:18:25.134Z,9.73
2023-09-23T23:21:28.147Z,8.83
2023-09-23T23:24:31.100Z,10.20
2023-09-23T23:27:34.460Z,9.45
2023-09-23T23:30:58.945Z,10.27
2023-09-23T23:34:02.360Z,9.57
2023-09-23T23:37:06.984Z,9.50
2023-09-23T23:40:10.096Z,9.88
2023-09-23T23:43:14.551Z,10.30
2023-09-23T23:46:19.135Z,9.68
2023-09-23T23:49:22.240Z,8.43
2023-09-23T23:52:25.465Z,7.30
2023-09-23T23:55:28.405Z,7.90
2023-09-23T23:58:31.492Z,7.25
